sensor_id;sensor_type;location;lat;lon;timestamp;P1;durP1;ratioP1;P2;durP2;ratioP2
73452;SDS011;61687;56.232;43.854;2022-11-04T00:00:02;7.80;;;4.57;;
73452;SDS011;61687;56.232;43.854;2022-11-04T00:02:30;4.82;;;2.88;;
73452;SDS011;61687;56.232;43.854;2022-11-04T00:04:56;6.05;;;3.97;;
73452;SDS011;61687;56.232;43.854;2022-11-04T00:07:23;8.52;;;3.75;;
73452;SDS011;61687;56.232;43.854;2022-11-04T00:10:07;6.78;;;3.92;;
73452;SDS011;61687;56.232;43.854;2022-11-04T00:12:33;6.03;;;3.33;;
73452;SDS011;61687;56.232;43.854;2022-11-04T00:14:59;6.90;;;3.50;;
73452;SDS011;61687;56.232;43.854;2022-11-04T00:17:45;6.07;;;3.92;;
73452;SDS011;61687;56.232;43.854;2022-11-04T00:20:10;5.33;;;3.27;;
73452;SDS011;61687;56.232;43.854;2022-11-04T00:22:55;7.70;;;3.63;;
73452;SDS011;61687;56.232;43.854;2022-11-04T00:25:39;6.05;;;4.00;;
73452;SDS011;61687;56.232;43.854;2022-11-04T00:28:23;5.50;;;3.47;;
73452;SDS011;61687;56.232;43.854;2022-11-04T00:31:07;7.28;;;3.35;;
73452;SDS011;61687;56.232;43.854;2022-11-04T00:33:52;8.40;;;3.53;;
73452;SDS011;61687;56.232;43.854;2022-11-04T00:36:20;6.50;;;3.55;;
73452;SDS011;61687;56.232;43.854;2022-11-04T00:38:47;5.70;;;3.65;;
73452;SDS011;61687;56.232;43.854;2022-11-04T00:41:13;6.15;;;3.85;;
73452;SDS011;61687;56.232;43.854;2022-11-04T00:43:51;5.47;;;3.53;;
73452;SDS011;61687;56.232;43.854;2022-11-04T00:46:21;5.47;;;3.50;;
73452;SDS011;61687;56.232;43.854;2022-11-04T00:48:47;5.75;;;3.72;;
73452;SDS011;61687;56.232;43.854;2022-11-04T00:51:13;5.38;;;3.88;;
73452;SDS011;61687;56.232;43.854;2022-11-04T00:53:39;5.72;;;3.85;;
73452;SDS011;61687;56.232;43.854;2022-11-04T00:56:05;6.10;;;3.60;;
73452;SDS011;61687;56.232;43.854;2022-11-04T00:58:31;5.35;;;4.20;;
73452;SDS011;61687;56.232;43.854;2022-11-04T01:00:57;4.88;;;3.30;;
73452;SDS011;61687;56.232;43.854;2022-11-04T01:03:23;4.30;;;2.95;;
73452;SDS011;61687;56.232;43.854;2022-11-04T01:05:49;5.47;;;2.90;;
73452;SDS011;61687;56.232;43.854;2022-11-04T01:08:15;5.03;;;3.58;;
73452;SDS011;61687;56.232;43.854;2022-11-04T01:10:41;5.18;;;3.58;;
73452;SDS011;61687;56.232;43.854;2022-11-04T01:13:10;6.43;;;3.95;;
73452;SDS011;61687;56.232;43.854;2022-11-04T01:15:36;5.20;;;3.72;;
73452;SDS011;61687;56.232;43.854;2022-11-04T01:18:03;5.55;;;4.05;;
73452;SDS011;61687;56.232;43.854;2022-11-04T01:20:30;5.65;;;3.85;;
73452;SDS011;61687;56.232;43.854;2022-11-04T01:22:57;6.60;;;4.13;;
73452;SDS011;61687;56.232;43.854;2022-11-04T01:25:23;5.60;;;3.60;;
73452;SDS011;61687;56.232;43.854;2022-11-04T01:27:49;6.10;;;3.65;;
73452;SDS011;61687;56.232;43.854;2022-11-04T01:30:15;6.32;;;4.28;;
73452;SDS011;61687;56.232;43.854;2022-11-04T01:32:41;5.30;;;3.33;;
73452;SDS011;61687;56.232;43.854;2022-11-04T01:35:07;5.70;;;3.57;;
73452;SDS011;61687;56.232;43.854;2022-11-04T01:37:33;4.78;;;3.35;;
73452;SDS011;61687;56.232;43.854;2022-11-04T01:39:59;6.47;;;4.03;;
73452;SDS011;61687;56.232;43.854;2022-11-04T01:42:25;5.15;;;3.22;;
73452;SDS011;61687;56.232;43.854;2022-11-04T01:44:55;5.07;;;2.88;;
73452;SDS011;61687;56.232;43.854;2022-11-04T01:47:24;6.78;;;4.18;;
73452;SDS011;61687;56.232;43.854;2022-11-04T01:50:08;6.70;;;3.10;;
73452;SDS011;61687;56.232;43.854;2022-11-04T01:52:49;6.93;;;3.83;;
73452;SDS011;61687;56.232;43.854;2022-11-04T01:55:34;7.37;;;3.43;;
73452;SDS011;61687;56.232;43.854;2022-11-04T01:58:06;5.97;;;3.28;;
73452;SDS011;61687;56.232;43.854;2022-11-04T02:00:37;6.35;;;3.85;;
73452;SDS011;61687;56.232;43.854;2022-11-04T02:03:08;5.85;;;3.92;;
73452;SDS011;61687;56.232;43.854;2022-11-04T02:05:39;5.38;;;3.67;;
73452;SDS011;61687;56.232;43.854;2022-11-04T02:08:07;4.63;;;3.07;;
73452;SDS011;61687;56.232;43.854;2022-11-04T02:10:35;5.38;;;3.28;;
73452;SDS011;61687;56.232;43.854;2022-11-04T02:13:02;5.95;;;3.78;;
73452;SDS011;61687;56.232;43.854;2022-11-04T02:34:42;5.93;;;3.70;;
73452;SDS011;61687;56.232;43.854;2022-11-04T02:37:27;6.85;;;4.05;;
73452;SDS011;61687;56.232;43.854;2022-11-04T02:43:23;7.55;;;4.40;;
73452;SDS011;61687;56.232;43.854;2022-11-04T02:49:09;7.53;;;3.63;;
73452;SDS011;61687;56.232;43.854;2022-11-04T02:51:42;7.53;;;3.63;;
73452;SDS011;61687;56.232;43.854;2022-11-04T02:54:16;6.85;;;3.92;;
73452;SDS011;61687;56.232;43.854;2022-11-04T02:56:45;8.18;;;3.85;;
73452;SDS011;61687;56.232;43.854;2022-11-04T02:59:16;8.10;;;4.50;;
73452;SDS011;61687;56.232;43.854;2022-11-04T03:01:47;11.67;;;5.57;;
73452;SDS011;61687;56.232;43.854;2022-11-04T03:04:17;9.15;;;5.03;;
73452;SDS011;61687;56.232;43.854;2022-11-04T03:06:47;9.27;;;5.53;;
73452;SDS011;61687;56.232;43.854;2022-11-04T03:09:15;8.77;;;4.25;;
73452;SDS011;61687;56.232;43.854;2022-11-04T03:11:44;6.07;;;4.22;;
73452;SDS011;61687;56.232;43.854;2022-11-04T03:14:19;5.97;;;3.57;;
73452;SDS011;61687;56.232;43.854;2022-11-04T03:16:55;6.03;;;3.42;;
73452;SDS011;61687;56.232;43.854;2022-11-04T03:19:46;5.90;;;4.10;;
73452;SDS011;61687;56.232;43.854;2022-11-04T03:22:22;10.60;;;3.40;;
73452;SDS011;61687;56.232;43.854;2022-11-04T03:24:53;8.43;;;4.15;;
73452;SDS011;61687;56.232;43.854;2022-11-04T03:27:40;7.40;;;3.20;;
73452;SDS011;61687;56.232;43.854;2022-11-04T03:30:15;6.47;;;3.90;;
73452;SDS011;61687;56.232;43.854;2022-11-04T03:35:13;7.78;;;4.07;;
73452;SDS011;61687;56.232;43.854;2022-11-04T03:37:40;6.78;;;4.18;;
73452;SDS011;61687;56.232;43.854;2022-11-04T03:40:07;6.97;;;3.70;;
73452;SDS011;61687;56.232;43.854;2022-11-04T03:42:36;6.65;;;4.07;;
73452;SDS011;61687;56.232;43.854;2022-11-04T03:45:06;11.20;;;5.05;;
73452;SDS011;61687;56.232;43.854;2022-11-04T03:47:33;6.93;;;4.07;;
73452;SDS011;61687;56.232;43.854;2022-11-04T03:52:37;7.20;;;4.53;;
73452;SDS011;61687;56.232;43.854;2022-11-04T03:55:04;8.18;;;4.53;;
73452;SDS011;61687;56.232;43.854;2022-11-04T03:57:35;7.10;;;4.78;;
73452;SDS011;61687;56.232;43.854;2022-11-04T04:05:22;8.07;;;4.20;;
73452;SDS011;61687;56.232;43.854;2022-11-04T04:07:55;11.05;;;4.22;;
73452;SDS011;61687;56.232;43.854;2022-11-04T04:10:40;7.43;;;5.10;;
73452;SDS011;61687;56.232;43.854;2022-11-04T04:13:18;8.18;;;4.57;;
73452;SDS011;61687;56.232;43.854;2022-11-04T04:16:00;8.35;;;5.40;;
73452;SDS011;61687;56.232;43.854;2022-11-04T04:18:37;7.43;;;4.13;;
73452;SDS011;61687;56.232;43.854;2022-11-04T04:21:11;10.70;;;4.75;;
73452;SDS011;61687;56.232;43.854;2022-11-04T04:23:41;9.93;;;4.25;;
73452;SDS011;61687;56.232;43.854;2022-11-04T04:26:28;9.98;;;5.43;;
73452;SDS011;61687;56.232;43.854;2022-11-04T04:29:16;9.73;;;5.57;;
73452;SDS011;61687;56.232;43.854;2022-11-04T04:31:44;11.57;;;5.20;;
73452;SDS011;61687;56.232;43.854;2022-11-04T04:34:16;10.07;;;3.95;;
73452;SDS011;61687;56.232;43.854;2022-11-04T04:36:45;8.73;;;4.50;;
73452;SDS011;61687;56.232;43.854;2022-11-04T04:39:41;12.57;;;4.15;;
73452;SDS011;61687;56.232;43.854;2022-11-04T04:42:33;7.72;;;4.32;;
73452;SDS011;61687;56.232;43.854;2022-11-04T04:45:22;6.43;;;4.07;;
73452;SDS011;61687;56.232;43.854;2022-11-04T04:47:55;12.07;;;4.20;;
73452;SDS011;61687;56.232;43.854;2022-11-04T04:50:21;8.30;;;4.82;;
73452;SDS011;61687;56.232;43.854;2022-11-04T04:52:51;8.13;;;4.68;;
73452;SDS011;61687;56.232;43.854;2022-11-04T04:55:19;17.73;;;5.45;;
73452;SDS011;61687;56.232;43.854;2022-11-04T04:57:45;7.87;;;4.67;;
73452;SDS011;61687;56.232;43.854;2022-11-04T05:00:12;9.32;;;4.53;;
73452;SDS011;61687;56.232;43.854;2022-11-04T05:02:40;10.52;;;4.82;;
73452;SDS011;61687;56.232;43.854;2022-11-04T05:05:06;7.30;;;4.95;;
73452;SDS011;61687;56.232;43.854;2022-11-04T05:07:32;9.70;;;4.95;;
73452;SDS011;61687;56.232;43.854;2022-11-04T05:09:58;7.50;;;4.60;;
73452;SDS011;61687;56.232;43.854;2022-11-04T05:12:24;6.70;;;4.28;;
73452;SDS011;61687;56.232;43.854;2022-11-04T05:14:50;8.70;;;4.80;;
73452;SDS011;61687;56.232;43.854;2022-11-04T05:17:16;9.73;;;5.15;;
73452;SDS011;61687;56.232;43.854;2022-11-04T05:19:42;9.55;;;4.65;;
73452;SDS011;61687;56.232;43.854;2022-11-04T05:22:08;8.98;;;4.95;;
73452;SDS011;61687;56.232;43.854;2022-11-04T05:24:34;7.77;;;4.40;;
73452;SDS011;61687;56.232;43.854;2022-11-04T05:26:59;7.03;;;4.30;;
73452;SDS011;61687;56.232;43.854;2022-11-04T05:29:25;6.75;;;4.43;;
73452;SDS011;61687;56.232;43.854;2022-11-04T05:31:51;8.00;;;4.30;;
73452;SDS011;61687;56.232;43.854;2022-11-04T05:34:17;10.55;;;4.30;;
73452;SDS011;61687;56.232;43.854;2022-11-04T05:36:43;6.15;;;3.60;;
73452;SDS011;61687;56.232;43.854;2022-11-04T05:39:10;6.87;;;4.33;;
73452;SDS011;61687;56.232;43.854;2022-11-04T05:41:37;7.78;;;3.90;;
73452;SDS011;61687;56.232;43.854;2022-11-04T05:44:03;7.57;;;4.65;;
73452;SDS011;61687;56.232;43.854;2022-11-04T05:46:29;6.53;;;4.30;;
73452;SDS011;61687;56.232;43.854;2022-11-04T05:48:55;8.63;;;4.30;;
73452;SDS011;61687;56.232;43.854;2022-11-04T05:51:22;7.60;;;5.20;;
73452;SDS011;61687;56.232;43.854;2022-11-04T05:53:50;7.07;;;4.55;;
73452;SDS011;61687;56.232;43.854;2022-11-04T05:56:16;9.88;;;4.88;;
73452;SDS011;61687;56.232;43.854;2022-11-04T05:58:42;8.40;;;4.75;;
73452;SDS011;61687;56.232;43.854;2022-11-04T06:03:57;11.68;;;5.35;;
73452;SDS011;61687;56.232;43.854;2022-11-04T06:06:24;9.20;;;4.83;;
73452;SDS011;61687;56.232;43.854;2022-11-04T06:08:52;11.73;;;5.13;;
73452;SDS011;61687;56.232;43.854;2022-11-04T06:11:18;10.77;;;5.68;;
73452;SDS011;61687;56.232;43.854;2022-11-04T06:13:45;7.65;;;4.95;;
73452;SDS011;61687;56.232;43.854;2022-11-04T06:16:11;8.87;;;4.83;;
73452;SDS011;61687;56.232;43.854;2022-11-04T06:18:36;14.50;;;5.13;;
73452;SDS011;61687;56.232;43.854;2022-11-04T06:21:09;8.70;;;4.97;;
73452;SDS011;61687;56.232;43.854;2022-11-04T06:23:36;8.25;;;5.25;;
73452;SDS011;61687;56.232;43.854;2022-11-04T06:26:01;11.60;;;4.60;;
73452;SDS011;61687;56.232;43.854;2022-11-04T06:28:27;9.50;;;5.05;;
73452;SDS011;61687;56.232;43.854;2022-11-04T06:30:53;9.43;;;5.23;;
73452;SDS011;61687;56.232;43.854;2022-11-04T06:33:22;8.77;;;4.75;;
73452;SDS011;61687;56.232;43.854;2022-11-04T06:35:48;10.27;;;5.80;;
73452;SDS011;61687;56.232;43.854;2022-11-04T06:38:13;14.90;;;5.97;;
73452;SDS011;61687;56.232;43.854;2022-11-04T06:40:39;10.68;;;5.07;;
73452;SDS011;61687;56.232;43.854;2022-11-04T06:43:05;10.98;;;5.57;;
73452;SDS011;61687;56.232;43.854;2022-11-04T06:45:31;12.33;;;6.83;;
73452;SDS011;61687;56.232;43.854;2022-11-04T06:47:57;11.40;;;6.15;;
73452;SDS011;61687;56.232;43.854;2022-11-04T06:50:22;10.47;;;5.83;;
73452;SDS011;61687;56.232;43.854;2022-11-04T06:52:48;10.85;;;4.82;;
73452;SDS011;61687;56.232;43.854;2022-11-04T06:55:14;12.30;;;5.45;;
73452;SDS011;61687;56.232;43.854;2022-11-04T06:57:40;14.40;;;5.40;;
73452;SDS011;61687;56.232;43.854;2022-11-04T07:00:06;14.07;;;5.30;;
73452;SDS011;61687;56.232;43.854;2022-11-04T07:02:32;10.00;;;4.90;;
73452;SDS011;61687;56.232;43.854;2022-11-04T07:04:58;8.13;;;4.10;;
73452;SDS011;61687;56.232;43.854;2022-11-04T07:07:24;8.50;;;4.82;;
73452;SDS011;61687;56.232;43.854;2022-11-04T07:09:50;9.50;;;4.82;;
73452;SDS011;61687;56.232;43.854;2022-11-04T07:12:15;7.85;;;4.22;;
73452;SDS011;61687;56.232;43.854;2022-11-04T07:14:41;10.55;;;4.90;;
73452;SDS011;61687;56.232;43.854;2022-11-04T07:17:07;7.60;;;4.97;;
73452;SDS011;61687;56.232;43.854;2022-11-04T07:19:33;7.53;;;4.05;;
73452;SDS011;61687;56.232;43.854;2022-11-04T07:21:59;11.82;;;5.70;;
73452;SDS011;61687;56.232;43.854;2022-11-04T07:24:25;7.77;;;4.93;;
73452;SDS011;61687;56.232;43.854;2022-11-04T07:26:53;9.70;;;5.13;;
73452;SDS011;61687;56.232;43.854;2022-11-04T07:29:20;11.45;;;5.88;;
73452;SDS011;61687;56.232;43.854;2022-11-04T07:31:46;10.20;;;5.33;;
73452;SDS011;61687;56.232;43.854;2022-11-04T07:34:11;8.75;;;4.32;;
73452;SDS011;61687;56.232;43.854;2022-11-04T07:36:37;10.27;;;4.13;;
73452;SDS011;61687;56.232;43.854;2022-11-04T07:39:04;8.85;;;5.13;;
73452;SDS011;61687;56.232;43.854;2022-11-04T07:41:31;9.07;;;5.40;;
73452;SDS011;61687;56.232;43.854;2022-11-04T07:43:57;11.18;;;6.13;;
73452;SDS011;61687;56.232;43.854;2022-11-04T07:46:23;12.23;;;6.63;;
73452;SDS011;61687;56.232;43.854;2022-11-04T07:48:49;10.90;;;4.97;;
73452;SDS011;61687;56.232;43.854;2022-11-04T07:51:15;9.05;;;4.68;;
73452;SDS011;61687;56.232;43.854;2022-11-04T07:53:42;10.13;;;4.68;;
73452;SDS011;61687;56.232;43.854;2022-11-04T07:56:09;7.53;;;5.03;;
73452;SDS011;61687;56.232;43.854;2022-11-04T07:58:39;7.82;;;4.40;;
73452;SDS011;61687;56.232;43.854;2022-11-04T08:01:07;8.98;;;5.18;;
73452;SDS011;61687;56.232;43.854;2022-11-04T08:03:35;9.60;;;4.60;;
73452;SDS011;61687;56.232;43.854;2022-11-04T08:06:02;8.10;;;5.20;;
73452;SDS011;61687;56.232;43.854;2022-11-04T08:08:29;8.40;;;4.87;;
73452;SDS011;61687;56.232;43.854;2022-11-04T08:11:00;8.70;;;3.97;;
73452;SDS011;61687;56.232;43.854;2022-11-04T08:13:28;8.98;;;5.07;;
73452;SDS011;61687;56.232;43.854;2022-11-04T08:15:56;10.32;;;5.22;;
73452;SDS011;61687;56.232;43.854;2022-11-04T08:18:27;10.43;;;5.88;;
73452;SDS011;61687;56.232;43.854;2022-11-04T08:20:53;6.43;;;4.35;;
73452;SDS011;61687;56.232;43.854;2022-11-04T08:23:19;9.93;;;4.78;;
73452;SDS011;61687;56.232;43.854;2022-11-04T08:25:45;8.07;;;4.68;;
73452;SDS011;61687;56.232;43.854;2022-11-04T08:28:11;6.77;;;4.53;;
73452;SDS011;61687;56.232;43.854;2022-11-04T08:31:03;9.80;;;5.10;;
73452;SDS011;61687;56.232;43.854;2022-11-04T08:33:30;9.05;;;5.38;;
73452;SDS011;61687;56.232;43.854;2022-11-04T08:36:03;11.70;;;5.13;;
73452;SDS011;61687;56.232;43.854;2022-11-04T08:38:31;8.80;;;5.15;;
73452;SDS011;61687;56.232;43.854;2022-11-04T08:40:59;6.17;;;4.13;;
73452;SDS011;61687;56.232;43.854;2022-11-04T08:43:27;10.25;;;5.00;;
73452;SDS011;61687;56.232;43.854;2022-11-04T08:45:53;7.93;;;5.30;;
73452;SDS011;61687;56.232;43.854;2022-11-04T08:48:19;6.47;;;4.18;;
73452;SDS011;61687;56.232;43.854;2022-11-04T08:50:49;9.50;;;4.60;;
73452;SDS011;61687;56.232;43.854;2022-11-04T08:53:19;9.00;;;4.60;;
73452;SDS011;61687;56.232;43.854;2022-11-04T08:55:45;7.80;;;4.65;;
73452;SDS011;61687;56.232;43.854;2022-11-04T08:58:11;27.85;;;7.93;;
73452;SDS011;61687;56.232;43.854;2022-11-04T09:00:37;15.80;;;5.15;;
73452;SDS011;61687;56.232;43.854;2022-11-04T09:03:03;15.90;;;4.60;;
73452;SDS011;61687;56.232;43.854;2022-11-04T09:05:30;10.20;;;4.60;;
73452;SDS011;61687;56.232;43.854;2022-11-04T09:07:56;7.43;;;4.78;;
73452;SDS011;61687;56.232;43.854;2022-11-04T09:10:22;8.82;;;4.28;;
73452;SDS011;61687;56.232;43.854;2022-11-04T09:12:48;8.87;;;4.37;;
73452;SDS011;61687;56.232;43.854;2022-11-04T09:15:14;12.52;;;4.65;;
73452;SDS011;61687;56.232;43.854;2022-11-04T09:17:40;7.85;;;5.07;;
73452;SDS011;61687;56.232;43.854;2022-11-04T09:20:08;11.48;;;5.30;;
73452;SDS011;61687;56.232;43.854;2022-11-04T09:22:34;11.10;;;5.35;;
73452;SDS011;61687;56.232;43.854;2022-11-04T09:25:00;7.93;;;4.72;;
73452;SDS011;61687;56.232;43.854;2022-11-04T09:27:26;9.63;;;5.32;;
73452;SDS011;61687;56.232;43.854;2022-11-04T09:29:52;8.80;;;5.17;;
73452;SDS011;61687;56.232;43.854;2022-11-04T09:32:18;8.55;;;5.00;;
73452;SDS011;61687;56.232;43.854;2022-11-04T09:34:44;10.45;;;4.82;;
73452;SDS011;61687;56.232;43.854;2022-11-04T09:37:09;5.07;;;3.40;;
73452;SDS011;61687;56.232;43.854;2022-11-04T09:39:35;7.00;;;3.97;;
73452;SDS011;61687;56.232;43.854;2022-11-04T09:47:43;10.40;;;5.18;;
73452;SDS011;61687;56.232;43.854;2022-11-04T09:50:21;9.48;;;4.57;;
73452;SDS011;61687;56.232;43.854;2022-11-04T09:52:51;12.00;;;4.32;;
73452;SDS011;61687;56.232;43.854;2022-11-04T09:55:45;6.68;;;4.60;;
73452;SDS011;61687;56.232;43.854;2022-11-04T09:58:17;9.93;;;4.53;;
73452;SDS011;61687;56.232;43.854;2022-11-04T10:00:44;8.55;;;4.18;;
73452;SDS011;61687;56.232;43.854;2022-11-04T10:08:54;12.75;;;4.63;;
73452;SDS011;61687;56.232;43.854;2022-11-04T10:11:40;7.30;;;4.18;;
73452;SDS011;61687;56.232;43.854;2022-11-04T10:17:08;9.15;;;4.35;;
73452;SDS011;61687;56.232;43.854;2022-11-04T10:19:53;10.18;;;4.30;;
73452;SDS011;61687;56.232;43.854;2022-11-04T10:22:25;8.18;;;4.25;;
73452;SDS011;61687;56.232;43.854;2022-11-04T10:25:02;15.68;;;7.50;;
73452;SDS011;61687;56.232;43.854;2022-11-04T10:27:35;10.80;;;5.90;;
73452;SDS011;61687;56.232;43.854;2022-11-04T10:30:06;9.18;;;5.35;;
73452;SDS011;61687;56.232;43.854;2022-11-04T10:33:03;11.75;;;5.47;;
73452;SDS011;61687;56.232;43.854;2022-11-04T10:35:41;16.02;;;8.73;;
73452;SDS011;61687;56.232;43.854;2022-11-04T10:38:15;19.10;;;8.85;;
73452;SDS011;61687;56.232;43.854;2022-11-04T10:40:48;19.00;;;9.02;;
73452;SDS011;61687;56.232;43.854;2022-11-04T10:43:27;19.73;;;7.45;;
73452;SDS011;61687;56.232;43.854;2022-11-04T10:48:46;19.00;;;8.20;;
73452;SDS011;61687;56.232;43.854;2022-11-04T10:51:16;20.45;;;8.38;;
73452;SDS011;61687;56.232;43.854;2022-11-04T10:53:46;18.00;;;7.32;;
73452;SDS011;61687;56.232;43.854;2022-11-04T10:56:20;16.88;;;6.53;;
73452;SDS011;61687;56.232;43.854;2022-11-04T10:58:58;25.10;;;9.93;;
73452;SDS011;61687;56.232;43.854;2022-11-04T11:01:32;29.60;;;7.97;;
73452;SDS011;61687;56.232;43.854;2022-11-04T11:03:59;19.52;;;6.53;;
73452;SDS011;61687;56.232;43.854;2022-11-04T11:06:31;15.68;;;5.82;;
73452;SDS011;61687;56.232;43.854;2022-11-04T11:09:00;13.70;;;4.72;;
73452;SDS011;61687;56.232;43.854;2022-11-04T11:12:26;25.48;;;5.43;;
73452;SDS011;61687;56.232;43.854;2022-11-04T11:14:55;12.35;;;4.85;;
73452;SDS011;61687;56.232;43.854;2022-11-04T11:17:23;11.18;;;4.72;;
73452;SDS011;61687;56.232;43.854;2022-11-04T11:22:47;9.93;;;4.60;;
73452;SDS011;61687;56.232;43.854;2022-11-04T11:25:26;9.60;;;4.97;;
73452;SDS011;61687;56.232;43.854;2022-11-04T11:27:54;9.55;;;5.72;;
73452;SDS011;61687;56.232;43.854;2022-11-04T11:30:27;11.07;;;5.43;;
73452;SDS011;61687;56.232;43.854;2022-11-04T11:32:57;9.73;;;5.15;;
73452;SDS011;61687;56.232;43.854;2022-11-04T11:35:30;12.90;;;5.35;;
73452;SDS011;61687;56.232;43.854;2022-11-04T11:37:58;11.00;;;5.97;;
73452;SDS011;61687;56.232;43.854;2022-11-04T11:40:29;12.40;;;6.18;;
73452;SDS011;61687;56.232;43.854;2022-11-04T11:42:59;12.98;;;6.88;;
73452;SDS011;61687;56.232;43.854;2022-11-04T11:45:26;14.40;;;8.23;;
73452;SDS011;61687;56.232;43.854;2022-11-04T11:47:53;13.60;;;7.68;;
73452;SDS011;61687;56.232;43.854;2022-11-04T11:50:24;14.43;;;8.15;;
73452;SDS011;61687;56.232;43.854;2022-11-04T11:53:06;17.15;;;8.93;;
73452;SDS011;61687;56.232;43.854;2022-11-04T11:55:38;13.55;;;7.30;;
73452;SDS011;61687;56.232;43.854;2022-11-04T11:59:00;14.63;;;8.35;;
73452;SDS011;61687;56.232;43.854;2022-11-04T12:01:39;18.77;;;8.05;;
73452;SDS011;61687;56.232;43.854;2022-11-04T12:04:11;20.27;;;9.05;;
73452;SDS011;61687;56.232;43.854;2022-11-04T12:06:50;19.08;;;9.43;;
73452;SDS011;61687;56.232;43.854;2022-11-04T12:09:35;17.83;;;8.65;;
73452;SDS011;61687;56.232;43.854;2022-11-04T12:12:49;13.82;;;7.47;;
73452;SDS011;61687;56.232;43.854;2022-11-04T12:15:13;14.73;;;7.10;;
73452;SDS011;61687;56.232;43.854;2022-11-04T12:18:03;13.20;;;6.00;;
73452;SDS011;61687;56.232;43.854;2022-11-04T12:20:55;9.98;;;5.20;;
73452;SDS011;61687;56.232;43.854;2022-11-04T12:23:45;9.27;;;5.38;;
73452;SDS011;61687;56.232;43.854;2022-11-04T12:47:44;15.30;;;7.40;;
73452;SDS011;61687;56.232;43.854;2022-11-04T13:00:56;10.32;;;6.10;;
73452;SDS011;61687;56.232;43.854;2022-11-04T13:03:32;47.65;;;7.30;;
73452;SDS011;61687;56.232;43.854;2022-11-04T13:06:17;11.15;;;4.60;;
73452;SDS011;61687;56.232;43.854;2022-11-04T13:08:53;5.80;;;4.13;;
73452;SDS011;61687;56.232;43.854;2022-11-04T13:11:35;7.30;;;4.75;;
73452;SDS011;61687;56.232;43.854;2022-11-04T13:14:17;7.50;;;4.88;;
73452;SDS011;61687;56.232;43.854;2022-11-04T13:17:02;13.70;;;5.38;;
73452;SDS011;61687;56.232;43.854;2022-11-04T13:19:40;24.98;;;5.22;;
73452;SDS011;61687;56.232;43.854;2022-11-04T13:22:24;10.13;;;5.20;;
73452;SDS011;61687;56.232;43.854;2022-11-04T13:24:58;9.93;;;5.45;;
73452;SDS011;61687;56.232;43.854;2022-11-04T13:27:34;12.70;;;5.80;;
73452;SDS011;61687;56.232;43.854;2022-11-04T13:35:20;13.80;;;5.25;;
73452;SDS011;61687;56.232;43.854;2022-11-04T13:38:17;11.32;;;6.13;;
73452;SDS011;61687;56.232;43.854;2022-11-04T13:43:37;16.42;;;6.80;;
73452;SDS011;61687;56.232;43.854;2022-11-04T13:51:20;17.08;;;5.97;;
73452;SDS011;61687;56.232;43.854;2022-11-04T13:53:47;15.55;;;7.22;;
73452;SDS011;61687;56.232;43.854;2022-11-04T13:56:29;21.88;;;7.07;;
73452;SDS011;61687;56.232;43.854;2022-11-04T13:59:00;15.60;;;6.95;;
73452;SDS011;61687;56.232;43.854;2022-11-04T14:01:31;17.80;;;7.20;;
73452;SDS011;61687;56.232;43.854;2022-11-04T14:04:05;16.75;;;7.10;;
73452;SDS011;61687;56.232;43.854;2022-11-04T14:06:47;14.70;;;6.50;;
73452;SDS011;61687;56.232;43.854;2022-11-04T14:25:24;28.50;;;12.20;;
73452;SDS011;61687;56.232;43.854;2022-11-04T14:27:53;24.63;;;12.40;;
73452;SDS011;61687;56.232;43.854;2022-11-04T14:30:35;23.77;;;10.98;;
73452;SDS011;61687;56.232;43.854;2022-11-04T14:35:53;21.08;;;10.57;;
73452;SDS011;61687;56.232;43.854;2022-11-04T14:38:24;17.35;;;9.55;;
73452;SDS011;61687;56.232;43.854;2022-11-04T14:43:53;18.67;;;8.07;;
73452;SDS011;61687;56.232;43.854;2022-11-04T14:46:23;23.88;;;8.93;;
73452;SDS011;61687;56.232;43.854;2022-11-04T14:48:53;21.02;;;9.50;;
73452;SDS011;61687;56.232;43.854;2022-11-04T14:51:26;17.90;;;9.38;;
73452;SDS011;61687;56.232;43.854;2022-11-04T14:53:58;20.45;;;9.18;;
73452;SDS011;61687;56.232;43.854;2022-11-04T14:56:29;23.05;;;9.73;;
73452;SDS011;61687;56.232;43.854;2022-11-04T14:58:57;19.60;;;10.07;;
73452;SDS011;61687;56.232;43.854;2022-11-04T15:01:34;20.02;;;9.02;;
73452;SDS011;61687;56.232;43.854;2022-11-04T15:04:09;18.33;;;9.23;;
73452;SDS011;61687;56.232;43.854;2022-11-04T15:06:43;23.17;;;8.65;;
73452;SDS011;61687;56.232;43.854;2022-11-04T15:09:20;21.75;;;8.93;;
73452;SDS011;61687;56.232;43.854;2022-11-04T15:12:05;18.55;;;8.65;;
73452;SDS011;61687;56.232;43.854;2022-11-04T15:14:53;13.70;;;6.95;;
73452;SDS011;61687;56.232;43.854;2022-11-04T15:17:19;16.50;;;8.23;;
73452;SDS011;61687;56.232;43.854;2022-11-04T15:19:49;15.10;;;7.97;;
73452;SDS011;61687;56.232;43.854;2022-11-04T15:22:17;10.75;;;5.90;;
73452;SDS011;61687;56.232;43.854;2022-11-04T15:24:44;12.38;;;7.10;;
73452;SDS011;61687;56.232;43.854;2022-11-04T15:27:12;13.73;;;6.45;;
73452;SDS011;61687;56.232;43.854;2022-11-04T15:29:52;12.13;;;6.63;;
73452;SDS011;61687;56.232;43.854;2022-11-04T15:32:23;13.75;;;6.30;;
73452;SDS011;61687;56.232;43.854;2022-11-04T15:34:50;16.55;;;7.57;;
73452;SDS011;61687;56.232;43.854;2022-11-04T15:37:17;13.77;;;7.00;;
73452;SDS011;61687;56.232;43.854;2022-11-04T15:39:48;11.27;;;5.72;;
73452;SDS011;61687;56.232;43.854;2022-11-04T15:42:18;12.32;;;5.65;;
73452;SDS011;61687;56.232;43.854;2022-11-04T15:56:48;14.75;;;7.65;;
73452;SDS011;61687;56.232;43.854;2022-11-04T15:59:24;18.50;;;9.18;;
73452;SDS011;61687;56.232;43.854;2022-11-04T16:01:53;12.00;;;6.55;;
73452;SDS011;61687;56.232;43.854;2022-11-04T16:04:21;12.75;;;7.75;;
73452;SDS011;61687;56.232;43.854;2022-11-04T16:09:49;15.05;;;6.20;;
73452;SDS011;61687;56.232;43.854;2022-11-04T16:14:52;12.45;;;6.80;;
73452;SDS011;61687;56.232;43.854;2022-11-04T16:17:22;9.60;;;5.82;;
73452;SDS011;61687;56.232;43.854;2022-11-04T16:19:50;14.35;;;7.05;;
73452;SDS011;61687;56.232;43.854;2022-11-04T16:22:27;10.95;;;6.63;;
73452;SDS011;61687;56.232;43.854;2022-11-04T16:24:56;15.32;;;6.60;;
73452;SDS011;61687;56.232;43.854;2022-11-04T16:27:23;13.68;;;6.60;;
73452;SDS011;61687;56.232;43.854;2022-11-04T16:29:51;12.32;;;6.40;;
73452;SDS011;61687;56.232;43.854;2022-11-04T16:32:29;13.50;;;5.47;;
73452;SDS011;61687;56.232;43.854;2022-11-04T16:35:07;9.07;;;5.03;;
73452;SDS011;61687;56.232;43.854;2022-11-04T16:37:46;10.48;;;6.22;;
73452;SDS011;61687;56.232;43.854;2022-11-04T16:40:13;13.43;;;6.65;;
73452;SDS011;61687;56.232;43.854;2022-11-04T16:42:40;13.25;;;6.63;;
73452;SDS011;61687;56.232;43.854;2022-11-04T16:45:07;13.95;;;6.10;;
73452;SDS011;61687;56.232;43.854;2022-11-04T16:47:44;12.15;;;6.63;;
73452;SDS011;61687;56.232;43.854;2022-11-04T16:50:14;12.20;;;6.10;;
73452;SDS011;61687;56.232;43.854;2022-11-04T16:52:41;11.45;;;6.10;;
73452;SDS011;61687;56.232;43.854;2022-11-04T16:55:07;14.77;;;6.05;;
73452;SDS011;61687;56.232;43.854;2022-11-04T16:57:34;13.50;;;6.25;;
73452;SDS011;61687;56.232;43.854;2022-11-04T17:00:00;13.52;;;6.32;;
73452;SDS011;61687;56.232;43.854;2022-11-04T17:02:27;14.07;;;6.18;;
73452;SDS011;61687;56.232;43.854;2022-11-04T17:04:59;13.07;;;5.53;;
73452;SDS011;61687;56.232;43.854;2022-11-04T17:07:25;13.43;;;4.97;;
73452;SDS011;61687;56.232;43.854;2022-11-04T17:09:52;10.38;;;5.60;;
73452;SDS011;61687;56.232;43.854;2022-11-04T17:12:18;10.32;;;6.18;;
73452;SDS011;61687;56.232;43.854;2022-11-04T17:14:44;9.98;;;5.68;;